Time;durP1;ratioP1;P1;durP2;ratioP2;P2;SDS_P1;SDS_P2;PMS_P1;PMS_P2;Temp;Humidity;BMP_temperature;BMP_pressure;BME280_temperature;BME280_humidity;BME280_pressure;Samples;Min_cycle;Max_cycle;Signal;HPM_P1;HPM_P2
2020/12/28 00:00:35;;;;;;;1.92;1.50;;;1.80;77.50;;;;;;4995109;28;20072;-88
2020/12/28 00:03:01;;;;;;;2.22;1.55;;;1.80;77.50;;;;;;5013281;28;20021;-89
2020/12/28 00:05:27;;;;;;;1.77;1.60;;;1.90;77.60;;;;;;4995154;28;20032;-89
2020/12/28 00:07:53;;;;;;;2.10;1.90;;;1.90;77.60;;;;;;4995792;28;20040;-88
2020/12/28 00:10:22;;;;;;;1.92;1.77;;;1.90;77.60;;;;;;4998476;28;20034;-89
2020/12/28 00:12:48;;;;;;;2.85;1.60;;;1.90;77.70;;;;;;4998608;28;20029;-89
2020/12/28 00:15:16;;;;;;;1.85;1.63;;;1.90;77.70;;;;;;5001997;28;20116;-88
2020/12/28 00:17:48;;;;;;;2.10;1.67;;;2.00;77.70;;;;;;4978607;28;20061;-89
2020/12/28 00:20:14;;;;;;;4.75;1.90;;;2.00;77.70;;;;;;4975762;28;20098;-89
2020/12/28 00:22:40;;;;;;;1.95;1.58;;;2.00;77.60;;;;;;4984036;28;20026;-88
2020/12/28 00:25:06;;;;;;;3.03;1.60;;;2.00;77.60;;;;;;5012492;28;20473;-89
2020/12/28 00:27:31;;;;;;;1.92;1.80;;;2.00;77.60;;;;;;5012185;28;20033;-89
2020/12/28 00:29:57;;;;;;;2.08;1.70;;;2.00;77.70;;;;;;5012464;28;20022;-88
2020/12/28 00:32:22;;;;;;;2.00;1.73;;;2.10;77.80;;;;;;4997562;28;20064;-89
2020/12/28 00:34:48;;;;;;;2.20;2.00;;;2.10;77.80;;;;;;5001897;28;20073;-89
2020/12/28 00:37:13;;;;;;;1.90;1.70;;;2.20;77.70;;;;;;4994494;28;20121;-89
2020/12/28 00:39:39;;;;;;;5.22;2.92;;;2.20;77.70;;;;;;4993962;28;20030;-89
2020/12/28 00:42:05;;;;;;;4.07;2.15;;;2.30;77.80;;;;;;4998153;28;20028;-89
2020/12/28 00:44:30;;;;;;;2.85;2.13;;;2.30;77.60;;;;;;5030733;28;20053;-89
2020/12/28 00:46:56;;;;;;;3.50;1.77;;;2.30;77.60;;;;;;4994856;28;20120;-89
2020/12/28 00:49:22;;;;;;;3.10;1.92;;;2.30;77.60;;;;;;4994569;28;20480;-89
2020/12/28 00:51:47;;;;;;;1.70;1.60;;;2.30;77.60;;;;;;4994687;28;20026;-89
2020/12/28 00:54:13;;;;;;;3.45;1.77;;;2.40;77.70;;;;;;5012752;28;20097;-89
2020/12/28 00:56:38;;;;;;;2.08;1.75;;;2.40;77.70;;;;;;4995110;28;20037;-89
2020/12/28 00:59:04;;;;;;;1.80;1.40;;;2.40;77.80;;;;;;4995192;28;20026;-89
2020/12/28 01:01:29;;;;;;;4.40;1.92;;;2.50;77.70;;;;;;4997838;28;20022;-89
2020/12/28 01:03:55;;;;;;;2.05;1.70;;;2.50;77.70;;;;;;4999040;28;20022;-89
2020/12/28 01:06:21;;;;;;;1.95;1.75;;;2.60;77.80;;;;;;4998380;28;20026;-89
2020/12/28 01:08:46;;;;;;;1.80;1.48;;;2.60;77.70;;;;;;4999466;28;20120;-89
2020/12/28 01:11:12;;;;;;;1.70;1.60;;;2.70;77.60;;;;;;5005410;28;20034;-89
2020/12/28 01:13:38;;;;;;;1.90;1.60;;;2.70;77.60;;;;;;5015134;28;20101;-89
2020/12/28 01:16:10;;;;;;;2.72;1.60;;;2.80;77.60;;;;;;4998519;28;20415;-89
2020/12/28 01:18:36;;;;;;;2.05;1.70;;;2.80;77.60;;;;;;5015938;28;20147;-90
2020/12/28 01:21:01;;;;;;;3.88;1.98;;;2.80;77.60;;;;;;4998097;28;20116;-89
2020/12/28 01:23:27;;;;;;;2.63;1.70;;;2.80;77.50;;;;;;4997675;28;20029;-89
2020/12/28 01:25:52;;;;;;;2.35;1.70;;;2.80;77.60;;;;;;4997441;28;20028;-89
2020/12/28 01:28:18;;;;;;;1.75;1.45;;;2.90;77.70;;;;;;5015798;28;20105;-90
2020/12/28 01:30:43;;;;;;;1.98;1.40;;;2.90;77.70;;;;;;4998932;28;20029;-90
2020/12/28 01:33:09;;;;;;;2.50;1.70;;;2.80;77.70;;;;;;4998524;28;20112;-90
2020/12/28 01:35:35;;;;;;;2.17;1.65;;;2.80;77.80;;;;;;5007341;28;20040;-91
2020/12/28 01:38:00;;;;;;;2.22;1.70;;;2.80;77.90;;;;;;4998738;28;20122;-90
2020/12/28 01:40:31;;;;;;;2.28;1.52;;;2.80;78.00;;;;;;4998688;28;20022;-90
2020/12/28 01:42:56;;;;;;;2.38;1.60;;;2.80;78.20;;;;;;5004514;28;20026;-90
2020/12/28 01:45:22;;;;;;;2.08;1.88;;;2.80;78.20;;;;;;4998916;28;20072;-89
2020/12/28 01:47:47;;;;;;;2.33;1.80;;;2.90;78.40;;;;;;4998845;28;20137;-89
2020/12/28 01:50:13;;;;;;;3.10;1.75;;;2.90;78.40;;;;;;4998044;28;20029;-90
2020/12/28 01:52:39;;;;;;;2.67;1.70;;;3.00;78.40;;;;;;5000228;28;20026;-89
2020/12/28 01:55:05;;;;;;;1.55;1.33;;;3.00;78.40;;;;;;4997563;28;20026;-89
2020/12/28 01:57:30;;;;;;;2.15;1.55;;;3.10;78.40;;;;;;4998033;28;20123;-89
2020/12/28 01:59:56;;;;;;;1.13;1.13;;;3.10;78.40;;;;;;4998209;28;20026;-89
2020/12/28 02:02:25;;;;;;;1.00;1.00;;;3.20;78.50;;;;;;4998117;28;20400;-88
2020/12/28 02:04:51;;;;;;;0.90;0.90;;;3.20;78.70;;;;;;4997504;28;20026;-89
2020/12/28 02:07:18;;;;;;;1.25;1.15;;;3.30;78.80;;;;;;4996674;28;20160;-89
2020/12/28 02:09:45;;;;;;;1.60;1.50;;;3.30;78.90;;;;;;5007140;28;20444;-89
2020/12/28 02:12:11;;;;;;;1.20;1.10;;;3.40;78.80;;;;;;5009587;28;20037;-89
2020/12/28 02:14:36;;;;;;;4.25;1.10;;;3.50;78.80;;;;;;4997431;28;20025;-89
2020/12/28 02:17:02;;;;;;;1.08;1.05;;;3.60;78.80;;;;;;4997919;28;20021;-88
2020/12/28 02:19:28;;;;;;;1.00;1.00;;;3.60;78.90;;;;;;4997085;28;20177;-89
2020/12/28 02:21:57;;;;;;;1.10;1.05;;;3.60;79.00;;;;;;4996684;28;20105;-89
2020/12/28 02:24:23;;;;;;;0.88;0.88;;;3.60;79.30;;;;;;4996263;28;20036;-89
2020/12/28 02:26:49;;;;;;;1.05;0.75;;;3.60;79.40;;;;;;4997205;28;20018;-89
2020/12/28 02:29:15;;;;;;;0.70;0.70;;;3.60;79.60;;;;;;4996816;28;20030;-90
2020/12/28 02:31:40;;;;;;;1.40;1.05;;;3.60;79.80;;;;;;4996932;28;20484;-89
2020/12/28 02:34:06;;;;;;;0.80;0.80;;;3.60;80.10;;;;;;4995939;28;20048;-88
2020/12/28 02:36:31;;;;;;;1.13;1.00;;;3.60;80.60;;;;;;4996212;28;20027;-88
2020/12/28 02:38:57;;;;;;;1.05;0.95;;;3.70;80.60;;;;;;4996874;28;20548;-89
2020/12/28 02:41:26;;;;;;;1.05;0.95;;;3.70;80.80;;;;;;5003610;28;20057;-89
2020/12/28 02:43:52;;;;;;;1.10;1.10;;;3.80;81.00;;;;;;5007845;28;20018;-89
2020/12/28 02:46:18;;;;;;;1.20;1.10;;;3.80;81.00;;;;;;4996464;28;20024;-89
2020/12/28 02:48:44;;;;;;;1.10;1.00;;;3.90;81.10;;;;;;4996220;28;20105;-88
2020/12/28 02:51:13;;;;;;;1.10;1.00;;;3.90;81.10;;;;;;5014341;28;20380;-88
2020/12/28 02:53:39;;;;;;;1.13;0.90;;;3.90;81.20;;;;;;4996136;28;20026;-89
2020/12/28 02:56:05;;;;;;;1.50;0.90;;;3.90;81.20;;;;;;4995932;28;20117;-89
2020/12/28 02:58:31;;;;;;;1.20;1.10;;;3.90;81.70;;;;;;4995843;28;20026;-89
2020/12/28 03:00:57;;;;;;;1.50;1.00;;;3.90;81.60;;;;;;5018071;23;20044;-89
2020/12/28 03:03:22;;;;;;;1.27;0.80;;;4.00;81.60;;;;;;4998597;28;20221;-89
2020/12/28 03:05:48;;;;;;;1.00;0.90;;;4.00;81.60;;;;;;5015641;28;20021;-89
2020/12/28 03:08:13;;;;;;;0.90;0.90;;;4.00;81.90;;;;;;5001873;28;20117;-90
2020/12/28 03:10:39;;;;;;;0.70;0.70;;;3.90;81.70;;;;;;4995900;28;20025;-89
2020/12/28 03:13:04;;;;;;;1.30;0.85;;;4.00;81.90;;;;;;4994989;28;20037;-89
2020/12/28 03:15:30;;;;;;;0.80;0.80;;;4.00;82.00;;;;;;5013408;28;20026;-89
2020/12/28 03:17:55;;;;;;;0.70;0.70;;;4.00;82.10;;;;;;4995778;28;20029;-89
2020/12/28 03:20:21;;;;;;;2.17;0.80;;;4.00;82.20;;;;;;4995769;28;20022;-89
2020/12/28 03:22:46;;;;;;;0.70;0.70;;;4.10;82.20;;;;;;4994261;28;20456;-89
2020/12/28 03:25:12;;;;;;;1.20;0.90;;;4.10;82.20;;;;;;4994561;28;20037;-88
2020/12/28 03:27:37;;;;;;;1.35;0.90;;;4.20;82.10;;;;;;4995029;28;20032;-89
2020/12/28 03:30:03;;;;;;;0.65;0.65;;;4.20;82.00;;;;;;4995392;28;20064;-89
2020/12/28 03:32:29;;;;;;;0.77;0.70;;;4.30;82.00;;;;;;4996227;28;20030;-89
2020/12/28 03:34:54;;;;;;;0.60;0.60;;;4.30;81.80;;;;;;4991268;28;20034;-88
2020/12/28 03:37:20;;;;;;;0.50;0.50;;;4.40;81.80;;;;;;4994009;28;20530;-88
2020/12/28 03:39:45;;;;;;;0.60;0.60;;;4.40;81.70;;;;;;4994948;28;20026;-88
2020/12/28 03:42:11;;;;;;;0.47;0.47;;;4.40;81.60;;;;;;4997610;28;20018;-89
2020/12/28 03:44:37;;;;;;;0.50;0.50;;;4.40;82.20;;;;;;4998057;28;20116;-89
2020/12/28 03:47:02;;;;;;;1.67;0.60;;;4.40;81.80;;;;;;5012529;28;20237;-90
2020/12/28 03:49:28;;;;;;;4.55;0.50;;;4.40;81.90;;;;;;4994160;28;20487;-89
2020/12/28 03:51:53;;;;;;;0.50;0.50;;;4.40;82.00;;;;;;4994665;28;20038;-89
2020/12/28 03:54:19;;;;;;;0.50;0.50;;;4.40;82.00;;;;;;4993930;28;20464;-89
2020/12/28 03:56:44;;;;;;;0.40;0.40;;;4.40;82.00;;;;;;4994436;28;20381;-90
2020/12/28 03:59:10;;;;;;;0.50;0.50;;;4.40;82.10;;;;;;4994731;28;20041;-89
2020/12/28 04:01:36;;;;;;;1.20;0.50;;;4.40;82.10;;;;;;4997005;28;20033;-89
2020/12/28 04:04:01;;;;;;;0.40;0.40;;;4.40;82.00;;;;;;5006220;28;20026;-89
2020/12/28 04:06:27;;;;;;;0.47;0.47;;;4.50;82.00;;;;;;4994272;28;20030;-89
2020/12/28 04:08:52;;;;;;;0.30;0.30;;;4.40;82.00;;;;;;4994589;28;20022;-89
2020/12/28 04:11:18;;;;;;;0.55;0.47;;;4.40;82.00;;;;;;4993944;28;20061;-89
2020/12/28 04:13:43;;;;;;;0.47;0.47;;;4.40;82.10;;;;;;4994454;28;20030;-90
2020/12/28 04:16:09;;;;;;;0.73;0.40;;;4.40;82.10;;;;;;4994382;28;20028;-89
2020/12/28 04:18:35;;;;;;;0.45;0.45;;;4.40;82.20;;;;;;4994212;28;20068;-89
2020/12/28 04:21:00;;;;;;;0.40;0.40;;;4.40;82.20;;;;;;5011296;28;20094;-89
2020/12/28 04:23:26;;;;;;;0.50;0.50;;;4.40;82.20;;;;;;4994321;28;20029;-89
2020/12/28 04:25:51;;;;;;;0.40;0.40;;;4.50;82.30;;;;;;4994166;28;20054;-90
2020/12/28 04:28:17;;;;;;;0.70;0.70;;;4.50;82.30;;;;;;4994352;28;20085;-90
2020/12/28 04:30:42;;;;;;;0.93;0.73;;;4.50;82.30;;;;;;4994700;28;20033;-89
2020/12/28 04:33:08;;;;;;;0.95;0.90;;;4.40;82.20;;;;;;5002392;28;20037;-89
2020/12/28 04:35:33;;;;;;;1.10;0.93;;;4.40;82.20;;;;;;5004265;28;20040;-89
2020/12/28 04:37:59;;;;;;;1.05;1.05;;;4.40;82.30;;;;;;4998130;28;20084;-90
2020/12/28 04:40:25;;;;;;;1.42;1.00;;;4.30;82.30;;;;;;4998598;28;20029;-90
2020/12/28 04:42:50;;;;;;;1.23;1.13;;;4.30;82.30;;;;;;5001945;28;20028;-89
2020/12/28 04:45:16;;;;;;;1.55;1.45;;;4.20;82.80;;;;;;4998107;28;20021;-90
2020/12/28 04:47:41;;;;;;;4.13;2.40;;;4.10;82.30;;;;;;4999048;28;20025;-90
2020/12/28 04:50:07;;;;;;;2.30;2.08;;;4.10;82.60;;;;;;4997886;28;20033;-90
2020/12/28 04:52:36;;;;;;;3.35;2.50;;;4.00;82.70;;;;;;4997070;28;20173;-90
2020/12/28 04:55:02;;;;;;;2.70;2.50;;;3.80;82.20;;;;;;4998357;28;20029;-90
2020/12/28 04:57:28;;;;;;;4.70;3.20;;;3.70;82.20;;;;;;4998723;28;20030;-89
2020/12/28 04:59:57;;;;;;;3.05;2.72;;;3.60;82.40;;;;;;4999258;28;20080;-90
2020/12/28 05:02:24;;;;;;;3.50;2.92;;;3.50;82.50;;;;;;5001258;28;20033;-90
2020/12/28 05:04:49;;;;;;;4.50;2.72;;;3.50;82.60;;;;;;5013250;28;20037;-89
2020/12/28 05:07:15;;;;;;;3.58;2.70;;;3.40;82.60;;;;;;5014077;28;20048;-90
2020/12/28 05:09:41;;;;;;;3.80;2.90;;;3.40;82.60;;;;;;5012574;28;20048;-88
2020/12/28 05:12:07;;;;;;;4.13;2.70;;;3.30;82.60;;;;;;5015178;28;20018;-90
2020/12/28 05:14:33;;;;;;;4.60;2.75;;;3.20;82.60;;;;;;5011983;28;20109;-90
2020/12/28 05:17:04;;;;;;;3.72;2.45;;;3.20;82.80;;;;;;4998022;28;20488;-90
2020/12/28 05:19:30;;;;;;;3.85;3.00;;;3.10;82.80;;;;;;4997626;28;20054;-89
2020/12/28 05:21:57;;;;;;;4.47;2.45;;;3.10;82.90;;;;;;4997390;28;20464;-89
2020/12/28 05:24:23;;;;;;;4.53;2.45;;;3.10;83.00;;;;;;4997106;28;20026;-90
2020/12/28 05:26:50;;;;;;;4.28;2.22;;;3.10;83.50;;;;;;4997362;28;20399;-90
2020/12/28 05:29:22;;;;;;;5.13;2.33;;;3.00;82.90;;;;;;4997816;28;20022;-90
2020/12/28 05:31:49;;;;;;;;;;;3.10;83.10;;;;;;5001583;28;20030;-90
2020/12/28 05:34:20;;;;;;;2.20;1.70;;;3.10;83.00;;;;;;5009693;28;19979;-90
2020/12/28 05:36:59;;;;;;;3.97;1.58;;;3.10;83.10;;;;;;5004468;28;20022;-90
2020/12/28 05:39:26;;;;;;;2.83;1.77;;;3.20;83.40;;;;;;4997313;28;20122;-90
2020/12/28 05:41:53;;;;;;;1.20;1.10;;;3.20;83.30;;;;;;4998518;28;20052;-90
2020/12/28 05:44:18;;;;;;;1.52;1.30;;;3.30;83.20;;;;;;4997486;28;20049;-90
2020/12/28 05:46:59;;;;;;;2.45;1.40;;;3.30;83.10;;;;;;4996200;28;20476;-89
2020/12/28 05:49:28;;;;;;;1.17;1.05;;;3.30;83.10;;;;;;4997330;28;20029;-89
2020/12/28 05:51:57;;;;;;;1.35;1.25;;;3.40;83.00;;;;;;5014580;28;20428;-91
2020/12/28 05:54:26;;;;;;;1.67;0.90;;;3.40;82.90;;;;;;4996954;28;20037;-90
2020/12/28 05:56:53;;;;;;;1.27;1.17;;;3.40;82.80;;;;;;4997270;28;20034;-91
2020/12/28 05:59:20;;;;;;;0.90;0.90;;;3.40;82.80;;;;;;4996794;28;20118;-90
2020/12/28 06:01:48;;;;;;;1.50;1.00;;;3.40;82.80;;;;;;5000767;28;20032;-89
2020/12/28 06:04:15;;;;;;;1.17;1.10;;;3.40;82.90;;;;;;5008096;28;20109;-90
2020/12/28 06:06:42;;;;;;;1.02;1.02;;;3.40;82.80;;;;;;4996812;28;20026;-91
2020/12/28 06:09:08;;;;;;;1.25;1.00;;;3.40;82.80;;;;;;4996781;28;20030;-90
2020/12/28 06:11:35;;;;;;;1.20;1.10;;;3.40;82.70;;;;;;4997319;28;20030;-92
2020/12/28 06:14:11;;;;;;;2.47;2.10;;;3.40;82.60;;;;;;4999734;28;20022;-92
2020/12/28 06:16:37;;;;;;;2.40;2.20;;;3.40;82.40;;;;;;5006393;28;20058;-92
2020/12/28 06:19:02;;;;;;;2.13;1.92;;;3.40;82.30;;;;;;5002307;28;20032;-92
2020/12/28 06:21:37;;;;;;;3.72;2.33;;;3.30;82.40;;;;;;5002946;28;20071;-91
2020/12/28 06:24:04;;;;;;;4.25;2.25;;;3.20;82.70;;;;;;4999117;28;20026;-93
2020/12/28 06:26:30;;;;;;;4.60;2.47;;;3.10;82.70;;;;;;4995403;28;20026;-93
2020/12/28 06:29:06;;;;;;;3.00;2.38;;;3.10;82.80;;;;;;4998604;28;20033;-92
2020/12/28 06:31:35;;;;;;;2.20;2.00;;;3.10;82.80;;;;;;4997581;28;20122;-91
2020/12/28 06:34:01;;;;;;;4.97;2.03;;;3.00;82.80;;;;;;5008132;28;20030;-93
2020/12/28 06:36:26;;;;;;;2.10;1.90;;;3.00;82.90;;;;;;5013692;28;20048;-92
2020/12/28 06:38:59;;;;;;;2.83;2.40;;;2.90;82.90;;;;;;4997150;28;20045;-90
2020/12/28 06:41:30;;;;;;;2.97;1.95;;;2.90;83.60;;;;;;4997018;28;20022;-90
2020/12/28 06:43:59;;;;;;;2.15;1.90;;;2.90;83.20;;;;;;4996940;28;20404;-91
2020/12/28 06:46:26;;;;;;;2.00;1.90;;;2.90;83.30;;;;;;4998271;28;20026;-91
2020/12/28 06:48:52;;;;;;;4.88;3.15;;;2.90;83.30;;;;;;4997575;28;20034;-90
2020/12/28 06:51:21;;;;;;;5.43;3.22;;;2.90;83.30;;;;;;4996748;28;20099;-91
2020/12/28 06:53:52;;;;;;;4.53;3.15;;;3.00;83.40;;;;;;5014937;28;20030;-90
2020/12/28 06:56:18;;;;;;;3.25;2.90;;;3.00;83.50;;;;;;4996930;28;20030;-90
2020/12/28 06:58:44;;;;;;;3.45;2.90;;;3.10;83.70;;;;;;5013334;28;20037;-90
2020/12/28 07:01:09;;;;;;;3.58;2.83;;;3.10;83.60;;;;;;5005081;28;20021;-89
2020/12/28 07:03:35;;;;;;;3.67;2.78;;;3.20;83.60;;;;;;5003023;28;20030;-90
2020/12/28 07:06:02;;;;;;;3.40;2.60;;;3.20;83.60;;;;;;5013736;28;20112;-91
2020/12/28 07:08:28;;;;;;;2.53;2.33;;;3.30;83.60;;;;;;4996935;28;20030;-90
2020/12/28 07:11:04;;;;;;;3.42;2.55;;;3.30;83.80;;;;;;4996169;28;20038;-91
2020/12/28 07:13:30;;;;;;;2.65;2.45;;;3.30;83.80;;;;;;4996823;28;20037;-90
2020/12/28 07:16:06;;;;;;;2.08;1.85;;;3.40;83.80;;;;;;4995680;28;20060;-89
2020/12/28 07:18:33;;;;;;;2.63;2.05;;;3.40;83.90;;;;;;4995571;28;20087;-90
2020/12/28 07:20:59;;;;;;;2.88;1.67;;;3.50;83.90;;;;;;4995936;28;20049;-91
2020/12/28 07:23:55;;;;;;;1.83;1.63;;;3.50;84.00;;;;;;4998680;28;20018;-92
2020/12/28 07:26:21;;;;;;;1.98;1.40;;;3.50;84.00;;;;;;5000692;28;20026;-92
2020/12/28 07:32:20;;;;;;;1.40;1.30;;;3.50;83.90;;;;;;4963409;28;20050;-91
2020/12/28 07:34:53;;;;;;;1.30;1.20;;;3.60;83.80;;;;;;4936986;29;20031;-91
2020/12/28 07:37:19;;;;;;;1.35;1.25;;;3.60;83.90;;;;;;4974644;28;20034;-91
2020/12/28 07:39:47;;;;;;;1.48;1.38;;;3.60;83.90;;;;;;4997607;28;20074;-91
2020/12/28 07:42:18;;;;;;;2.45;1.48;;;3.70;83.90;;;;;;4995383;28;20026;-90
2020/12/28 07:44:50;;;;;;;2.80;1.90;;;3.70;83.90;;;;;;4978750;28;20026;-90
2020/12/28 07:47:19;;;;;;;9.18;3.75;;;3.70;83.90;;;;;;4996158;28;20065;-90
2020/12/28 07:49:46;;;;;;;14.48;6.07;;;3.80;83.90;;;;;;4995713;28;20033;-90
2020/12/28 07:52:15;;;;;;;5.75;3.83;;;3.80;84.00;;;;;;4995649;28;20164;-90
2020/12/28 07:54:44;;;;;;;2.00;1.80;;;3.90;84.20;;;;;;4995184;28;20040;-90
2020/12/28 07:57:33;;;;;;;1.42;1.20;;;3.90;84.00;;;;;;4995949;28;20109;-90
2020/12/28 08:00:08;;;;;;;2.20;2.00;;;3.90;83.90;;;;;;4999395;28;20117;-89
2020/12/28 08:02:49;;;;;;;1.35;1.25;;;4.00;83.90;;;;;;5010902;28;20124;-90
2020/12/28 08:05:23;;;;;;;2.25;1.38;;;4.00;83.80;;;;;;4995464;28;20037;-90
2020/12/28 08:07:52;;;;;;;2.75;1.40;;;4.00;83.80;;;;;;4994449;28;20485;-90
2020/12/28 08:10:18;;;;;;;1.55;1.38;;;4.00;83.70;;;;;;4988534;28;20033;-89
2020/12/28 08:13:10;;;;;;;1.42;1.33;;;4.10;83.70;;;;;;4993645;28;20033;-90
2020/12/28 08:15:42;;;;;;;3.72;1.95;;;4.10;83.60;;;;;;4995716;28;20514;-89
2020/12/28 08:18:11;;;;;;;3.25;2.95;;;4.10;83.50;;;;;;4996265;28;20485;-90
2020/12/28 08:20:43;;;;;;;5.57;3.50;;;4.10;83.30;;;;;;4995391;28;20198;-90
2020/12/28 08:23:17;;;;;;;4.13;2.40;;;4.10;83.10;;;;;;4994492;28;20025;-90
2020/12/28 08:25:48;;;;;;;4.20;3.35;;;4.10;83.20;;;;;;4995444;28;20073;-90
2020/12/28 08:29:05;;;;;;;4.43;3.50;;;4.00;83.20;;;;;;4995367;28;20090;-90
2020/12/28 08:31:37;;;;;;;4.57;2.90;;;3.90;83.40;;;;;;4970568;28;20695;-90
2020/12/28 08:34:48;;;;;;;6.60;3.05;;;3.80;83.50;;;;;;4970830;28;20042;-90
2020/12/28 08:37:23;;;;;;;3.13;2.83;;;3.80;83.60;;;;;;4982448;28;20038;-91
2020/12/28 08:42:58;;;;;;;3.40;2.75;;;3.80;83.60;;;;;;5009648;28;20042;-91
2020/12/28 08:45:34;;;;;;;2.90;2.08;;;3.80;83.70;;;;;;4978797;28;20046;-90
2020/12/28 08:47:59;;;;;;;3.20;2.50;;;3.80;83.70;;;;;;4997388;28;20480;-91
2020/12/28 08:50:34;;;;;;;5.10;3.33;;;3.80;83.80;;;;;;5001545;28;20037;-92
2020/12/28 08:53:00;;;;;;;4.43;3.28;;;3.80;83.80;;;;;;4999407;28;20427;-91
2020/12/28 08:55:25;;;;;;;7.07;3.17;;;3.80;83.70;;;;;;4990440;28;20038;-90
2020/12/28 08:57:53;;;;;;;4.18;3.28;;;3.80;83.70;;;;;;4995818;28;20030;-90
2020/12/28 09:00:23;;;;;;;5.80;3.33;;;3.80;83.80;;;;;;4995011;28;20022;-90
2020/12/28 09:02:55;;;;;;;6.15;3.30;;;3.70;83.70;;;;;;5030559;23;20045;-64
2020/12/28 09:05:21;;;;;;;4.90;3.35;;;3.70;83.80;;;;;;5026403;28;20028;-64
2020/12/28 09:07:47;;;;;;;5.38;3.40;;;3.60;83.90;;;;;;5029702;28;20033;-65
2020/12/28 09:10:14;;;;;;;5.35;2.97;;;3.50;83.90;;;;;;4998122;28;20033;-65
2020/12/28 09:12:40;;;;;;;3.50;2.90;;;3.40;84.10;;;;;;5020332;28;20040;-65
2020/12/28 09:15:06;;;;;;;7.72;2.88;;;3.40;84.30;;;;;;5028724;28;20025;-66
2020/12/28 09:17:32;;;;;;;3.70;2.88;;;3.30;84.50;;;;;;5021666;28;20026;-66
2020/12/28 09:19:57;;;;;;;4.85;3.15;;;3.20;84.70;;;;;;5010347;28;20036;-67
2020/12/28 09:22:23;;;;;;;4.72;3.42;;;3.20;84.90;;;;;;5013767;28;20025;-65
2020/12/28 09:24:49;;;;;;;4.85;3.28;;;3.20;85.10;;;;;;5016310;28;20018;-65
2020/12/28 09:27:14;;;;;;;8.10;4.15;;;3.10;85.60;;;;;;5032860;28;20045;-66
2020/12/28 09:29:40;;;;;;;5.00;3.55;;;3.10;85.20;;;;;;5031106;28;20022;-65
2020/12/28 09:32:05;;;;;;;4.70;3.53;;;3.20;85.30;;;;;;5027951;28;20512;-65
2020/12/28 09:34:31;;;;;;;4.25;3.47;;;3.10;85.30;;;;;;5032938;28;20477;-65
2020/12/28 09:37:04;;;;;;;4.97;3.97;;;3.20;85.30;;;;;;5015058;28;20080;-65
2020/12/28 09:39:30;;;;;;;6.82;3.75;;;3.20;85.40;;;;;;5033002;28;20504;-65
2020/12/28 09:41:56;;;;;;;5.82;4.00;;;3.20;85.40;;;;;;4997251;28;20030;-66
2020/12/28 09:44:23;;;;;;;7.82;4.45;;;3.30;85.50;;;;;;5025113;28;20393;-65
2020/12/28 09:46:50;;;;;;;8.43;4.38;;;3.30;85.40;;;;;;5015680;28;20026;-65
2020/12/28 09:49:16;;;;;;;4.60;3.83;;;3.40;85.50;;;;;;5016666;28;20029;-65
2020/12/28 09:51:47;;;;;;;4.85;3.78;;;3.40;85.50;;;;;;4999541;28;20033;-65
2020/12/28 09:54:13;;;;;;;5.10;3.60;;;3.50;85.60;;;;;;5012124;28;20104;-65
2020/12/28 09:56:39;;;;;;;6.00;3.53;;;3.50;85.60;;;;;;5029385;28;20105;-65
2020/12/28 09:59:04;;;;;;;5.03;3.40;;;3.60;85.60;;;;;;5018491;28;20038;-65
2020/12/28 10:01:30;;;;;;;3.83;3.20;;;3.70;85.60;;;;;;5021811;28;20025;-66
2020/12/28 10:03:56;;;;;;;5.68;3.67;;;3.70;85.60;;;;;;5031338;28;20034;-66
2020/12/28 10:06:31;;;;;;;4.72;3.17;;;3.80;85.70;;;;;;5014862;28;20187;-64
2020/12/28 10:09:00;;;;;;;5.32;3.65;;;3.80;85.60;;;;;;5032944;28;20039;-64
2020/12/28 10:11:26;;;;;;;4.45;3.20;;;3.90;85.70;;;;;;5028536;28;20431;-64
2020/12/28 10:13:52;;;;;;;4.65;3.33;;;3.90;85.60;;;;;;5021445;28;20022;-65
2020/12/28 10:16:22;;;;;;;6.13;3.75;;;4.00;85.70;;;;;;5020535;28;20022;-65
2020/12/28 10:18:47;;;;;;;5.47;4.25;;;4.00;85.70;;;;;;5012480;28;20033;-65
2020/12/28 10:21:13;;;;;;;15.98;9.57;;;4.10;85.70;;;;;;5003583;28;20026;-64
2020/12/28 10:23:38;;;;;;;7.20;4.25;;;4.20;85.90;;;;;;5022510;28;20163;-64
2020/12/28 10:26:05;;;;;;;6.32;4.35;;;4.20;85.70;;;;;;5023989;28;20048;-64
2020/12/28 10:28:31;;;;;;;6.10;4.00;;;4.30;85.60;;;;;;5012627;28;20113;-65
2020/12/28 10:30:56;;;;;;;7.13;5.15;;;4.20;85.50;;;;;;5012264;28;20101;-66
2020/12/28 10:33:22;;;;;;;7.30;4.80;;;4.20;85.50;;;;;;5011925;28;20034;-65
2020/12/28 10:35:47;;;;;;;7.88;5.13;;;4.20;85.60;;;;;;5013019;28;20486;-65
2020/12/28 10:38:13;;;;;;;9.77;5.18;;;4.10;85.60;;;;;;5007943;28;20053;-65
2020/12/28 10:40:39;;;;;;;9.20;5.03;;;4.10;85.80;;;;;;5027405;28;20104;-65
2020/12/28 10:43:05;;;;;;;7.13;4.55;;;4.00;85.80;;;;;;5031398;28;20017;-63
2020/12/28 10:45:30;;;;;;;8.38;4.30;;;4.00;85.90;;;;;;5030414;28;20470;-66
2020/12/28 10:47:56;;;;;;;4.93;3.85;;;4.00;86.00;;;;;;5031932;28;20490;-67
2020/12/28 10:50:21;;;;;;;8.25;4.30;;;3.90;86.00;;;;;;5020989;28;20620;-65
2020/12/28 10:52:47;;;;;;;7.32;4.65;;;3.90;86.20;;;;;;5014283;28;20026;-66
2020/12/28 10:55:12;;;;;;;6.85;4.35;;;3.90;86.30;;;;;;5023611;28;20108;-65
2020/12/28 10:57:38;;;;;;;7.68;4.50;;;3.90;86.30;;;;;;5020170;28;20128;-65
2020/12/28 11:00:04;;;;;;;7.50;4.55;;;3.90;86.40;;;;;;5031830;28;20489;-65
2020/12/28 11:02:30;;;;;;;6.78;4.80;;;3.90;86.40;;;;;;5015500;28;20525;-66
2020/12/28 11:04:55;;;;;;;41.42;22.00;;;4.00;86.50;;;;;;5019857;28;20060;-66
2020/12/28 11:07:21;;;;;;;8.45;6.35;;;4.00;86.50;;;;;;5031509;28;20342;-66
2020/12/28 11:09:46;;;;;;;9.10;5.85;;;4.10;86.50;;;;;;5027988;28;20025;-65
2020/12/28 11:12:12;;;;;;;10.85;5.97;;;4.10;86.50;;;;;;5024917;28;20057;-66
2020/12/28 11:14:37;;;;;;;9.55;7.22;;;4.20;86.50;;;;;;5012013;28;20026;-66
2020/12/28 11:17:03;;;;;;;10.50;7.78;;;4.20;86.60;;;;;;5021854;28;20081;-65
2020/12/28 11:19:30;;;;;;;11.43;7.93;;;4.20;86.50;;;;;;5011837;28;20029;-65
2020/12/28 11:21:55;;;;;;;14.82;7.80;;;4.20;86.60;;;;;;5011567;28;20018;-65
2020/12/28 11:24:21;;;;;;;12.73;7.50;;;4.20;86.60;;;;;;5028131;28;20028;-65
2020/12/28 11:26:48;;;;;;;13.13;8.52;;;4.40;87.50;;;;;;5031123;28;20030;-66
2020/12/28 11:29:14;;;;;;;11.70;7.55;;;4.50;87.10;;;;;;5014505;28;20033;-66
2020/12/28 11:31:39;;;;;;;10.07;6.63;;;4.60;86.80;;;;;;5016923;28;20105;-65
2020/12/28 11:34:05;;;;;;;8.15;6.00;;;4.60;86.20;;;;;;5011272;28;20059;-64
2020/12/28 11:36:30;;;;;;;11.38;5.88;;;4.70;86.00;;;;;;5022171;28;20026;-65
2020/12/28 11:38:56;;;;;;;8.25;5.32;;;4.60;85.90;;;;;;5038838;28;20160;-65
2020/12/28 11:41:22;;;;;;;10.35;6.10;;;4.50;85.90;;;;;;5017516;28;20022;-65
2020/12/28 11:43:47;;;;;;;10.70;5.90;;;4.50;85.90;;;;;;5029216;28;20038;-65
2020/12/28 11:46:13;;;;;;;10.00;5.70;;;4.40;86.00;;;;;;5033774;28;20013;-66
2020/12/28 11:48:39;;;;;;;9.07;6.03;;;4.40;86.10;;;;;;5032258;28;20029;-65
2020/12/28 11:51:06;;;;;;;10.18;5.50;;;4.30;86.10;;;;;;5027444;28;20528;-65
2020/12/28 11:53:36;;;;;;;11.23;5.10;;;4.30;86.10;;;;;;5026250;28;20173;-65
2020/12/28 11:56:11;;;;;;;9.10;5.32;;;4.30;86.20;;;;;;5028008;28;20052;-65
2020/12/28 11:58:38;;;;;;;7.15;4.47;;;4.20;86.10;;;;;;5011212;28;20112;-66
2020/12/28 12:01:13;;;;;;;5.93;4.10;;;4.20;86.30;;;;;;5011880;28;20071;-66
2020/12/28 12:03:39;;;;;;;4.40;3.05;;;4.10;86.40;;;;;;5012399;28;20061;-66
2020/12/28 12:06:05;;;;;;;5.28;3.42;;;4.10;86.50;;;;;;5010146;28;20130;-66
2020/12/28 12:08:30;;;;;;;6.18;3.90;;;4.20;86.60;;;;;;5014975;28;20050;-66
2020/12/28 12:10:56;;;;;;;7.80;3.60;;;4.20;86.60;;;;;;5026113;28;20539;-66
2020/12/28 12:13:22;;;;;;;6.63;4.45;;;4.20;86.60;;;;;;5016726;28;20061;-66
2020/12/28 12:15:49;;;;;;;6.60;3.63;;;4.20;86.60;;;;;;5029666;28;20385;-66
2020/12/28 12:18:15;;;;;;;7.65;5.75;;;4.30;86.60;;;;;;5030395;28;20168;-66
2020/12/28 12:20:41;;;;;;;4.32;3.30;;;4.30;86.50;;;;;;5030288;28;20026;-66
2020/12/28 12:23:07;;;;;;;7.68;4.60;;;4.30;86.90;;;;;;5029330;28;20522;-66
2020/12/28 12:25:34;;;;;;;5.57;3.15;;;4.40;86.40;;;;;;5028680;28;20478;-66
2020/12/28 12:28:00;;;;;;;3.83;3.22;;;4.40;86.40;;;;;;5030411;28;20104;-66
2020/12/28 12:30:26;;;;;;;5.55;2.95;;;4.40;86.30;;;;;;5030194;28;20022;-66
2020/12/28 12:32:52;;;;;;;5.93;3.50;;;4.50;86.30;;;;;;5004267;28;20080;-66
2020/12/28 12:35:18;;;;;;;4.47;3.78;;;4.50;86.20;;;;;;5009696;28;20487;-66
2020/12/28 12:37:43;;;;;;;7.07;3.67;;;4.50;86.10;;;;;;4993178;28;20034;-66
2020/12/28 12:40:09;;;;;;;4.97;3.70;;;4.50;86.10;;;;;;5010465;28;20422;-66
2020/12/28 12:42:34;;;;;;;5.05;3.65;;;4.50;86.00;;;;;;5027080;28;20048;-66
2020/12/28 12:45:00;;;;;;;6.80;4.47;;;4.50;86.00;;;;;;5027679;28;20070;-66
2020/12/28 12:47:25;;;;;;;4.97;4.25;;;4.50;86.00;;;;;;5030454;28;20160;-68
2020/12/28 12:49:51;;;;;;;5.82;4.13;;;4.50;86.00;;;;;;5030170;28;20024;-66
2020/12/28 12:52:18;;;;;;;5.25;3.85;;;4.60;86.10;;;;;;5024673;28;20486;-66
2020/12/28 12:54:45;;;;;;;6.85;3.92;;;4.60;86.10;;;;;;5009449;28;20029;-66
2020/12/28 12:57:11;;;;;;;5.13;4.25;;;4.60;86.00;;;;;;5014258;28;20041;-66
2020/12/28 13:02:27;;;;;;;6.22;4.75;;;4.60;86.00;;;;;;5014070;28;20036;-66
2020/12/28 13:04:53;;;;;;;11.20;7.25;;;4.70;86.00;;;;;;4996015;28;20025;-66
2020/12/28 13:07:18;;;;;;;5.35;3.88;;;4.70;86.00;;;;;;5013945;28;20022;-66